sensor_id;sensor_type;location;lat;lon;timestamp;P1;durP1;ratioP1;P2;durP2;ratioP2
6019;SDS011;3038;51.122;6.840;2022-07-03T00:01:56;4.20;;;3.23;;
6019;SDS011;3038;51.122;6.840;2022-07-03T00:04:22;4.30;;;3.60;;
6019;SDS011;3038;51.122;6.840;2022-07-03T00:06:47;4.20;;;3.80;;
6019;SDS011;3038;51.122;6.840;2022-07-03T00:09:13;7.23;;;3.83;;
6019;SDS011;3038;51.122;6.840;2022-07-03T00:11:39;8.00;;;3.87;;
6019;SDS011;3038;51.122;6.840;2022-07-03T00:14:05;5.83;;;4.10;;
6019;SDS011;3038;51.122;6.840;2022-07-03T00:16:30;4.83;;;3.27;;
6019;SDS011;3038;51.122;6.840;2022-07-03T00:18:56;3.80;;;3.20;;
6019;SDS011;3038;51.122;6.840;2022-07-03T00:21:26;3.73;;;3.43;;
6019;SDS011;3038;51.122;6.840;2022-07-03T00:24:08;5.10;;;3.90;;
6019;SDS011;3038;51.122;6.840;2022-07-03T00:26:36;4.00;;;3.60;;
6019;SDS011;3038;51.122;6.840;2022-07-03T00:29:04;4.53;;;3.70;;
6019;SDS011;3038;51.122;6.840;2022-07-03T00:31:31;5.40;;;3.30;;
6019;SDS011;3038;51.122;6.840;2022-07-03T00:33:58;6.37;;;3.73;;
6019;SDS011;3038;51.122;6.840;2022-07-03T00:36:29;6.67;;;3.70;;
6019;SDS011;3038;51.122;6.840;2022-07-03T00:38:58;3.60;;;3.13;;
6019;SDS011;3038;51.122;6.840;2022-07-03T00:41:28;4.50;;;3.30;;
6019;SDS011;3038;51.122;6.840;2022-07-03T00:43:55;3.60;;;3.30;;
6019;SDS011;3038;51.122;6.840;2022-07-03T00:46:22;4.93;;;3.33;;
6019;SDS011;3038;51.122;6.840;2022-07-03T00:48:50;5.67;;;3.30;;
6019;SDS011;3038;51.122;6.840;2022-07-03T00:51:18;5.77;;;3.10;;
6019;SDS011;3038;51.122;6.840;2022-07-03T00:53:46;4.23;;;3.40;;
6019;SDS011;3038;51.122;6.840;2022-07-03T00:56:16;3.83;;;3.53;;
6019;SDS011;3038;51.122;6.840;2022-07-03T00:58:44;4.60;;;3.23;;
6019;SDS011;3038;51.122;6.840;2022-07-03T01:01:10;7.27;;;3.40;;
6019;SDS011;3038;51.122;6.840;2022-07-03T01:03:40;6.07;;;3.43;;
6019;SDS011;3038;51.122;6.840;2022-07-03T01:06:11;5.10;;;3.60;;
6019;SDS011;3038;51.122;6.840;2022-07-03T01:08:47;4.00;;;3.60;;
6019;SDS011;3038;51.122;6.840;2022-07-03T01:16:49;5.03;;;3.63;;
6019;SDS011;3038;51.122;6.840;2022-07-03T01:30:24;4.10;;;3.70;;
6019;SDS011;3038;51.122;6.840;2022-07-03T01:32:59;4.00;;;3.50;;
6019;SDS011;3038;51.122;6.840;2022-07-03T01:35:35;3.30;;;3.00;;
6019;SDS011;3038;51.122;6.840;2022-07-03T01:38:06;4.60;;;3.30;;
6019;SDS011;3038;51.122;6.840;2022-07-03T01:40:37;4.13;;;3.73;;
6019;SDS011;3038;51.122;6.840;2022-07-03T01:43:05;4.23;;;3.83;;
6019;SDS011;3038;51.122;6.840;2022-07-03T01:45:34;5.97;;;4.07;;
6019;SDS011;3038;51.122;6.840;2022-07-03T01:48:06;3.47;;;3.27;;
6019;SDS011;3038;51.122;6.840;2022-07-03T01:50:32;9.47;;;4.70;;
6019;SDS011;3038;51.122;6.840;2022-07-03T01:53:00;5.20;;;4.37;;
6019;SDS011;3038;51.122;6.840;2022-07-03T01:55:29;4.67;;;4.27;;
6019;SDS011;3038;51.122;6.840;2022-07-03T01:57:56;6.40;;;4.10;;
6019;SDS011;3038;51.122;6.840;2022-07-03T02:00:22;4.93;;;4.23;;
6019;SDS011;3038;51.122;6.840;2022-07-03T02:03:04;5.10;;;4.30;;
6019;SDS011;3038;51.122;6.840;2022-07-03T02:05:34;5.83;;;3.80;;
6019;SDS011;3038;51.122;6.840;2022-07-03T02:11:21;4.47;;;3.77;;
6019;SDS011;3038;51.122;6.840;2022-07-03T02:14:09;5.60;;;4.60;;
6019;SDS011;3038;51.122;6.840;2022-07-03T02:19:19;9.90;;;3.50;;
6019;SDS011;3038;51.122;6.840;2022-07-03T02:21:55;4.67;;;4.20;;
6019;SDS011;3038;51.122;6.840;2022-07-03T02:24:22;5.00;;;4.60;;
6019;SDS011;3038;51.122;6.840;2022-07-03T02:27:25;4.73;;;4.33;;
6019;SDS011;3038;51.122;6.840;2022-07-03T02:29:59;4.40;;;4.00;;
6019;SDS011;3038;51.122;6.840;2022-07-03T02:32:28;4.73;;;4.23;;
6019;SDS011;3038;51.122;6.840;2022-07-03T02:35:00;5.60;;;4.90;;
6019;SDS011;3038;51.122;6.840;2022-07-03T02:37:30;7.43;;;4.40;;
6019;SDS011;3038;51.122;6.840;2022-07-03T02:40:02;5.03;;;4.63;;
6019;SDS011;3038;51.122;6.840;2022-07-03T02:45:09;5.10;;;4.60;;
6019;SDS011;3038;51.122;6.840;2022-07-03T02:47:45;5.33;;;4.80;;
6019;SDS011;3038;51.122;6.840;2022-07-03T02:50:27;5.40;;;4.90;;
6019;SDS011;3038;51.122;6.840;2022-07-03T02:55:44;4.83;;;4.43;;
6019;SDS011;3038;51.122;6.840;2022-07-03T03:01:30;6.03;;;4.60;;
6019;SDS011;3038;51.122;6.840;2022-07-03T03:06:37;4.80;;;4.40;;
6019;SDS011;3038;51.122;6.840;2022-07-03T03:09:07;5.20;;;4.40;;
6019;SDS011;3038;51.122;6.840;2022-07-03T03:11:42;5.20;;;4.70;;
6019;SDS011;3038;51.122;6.840;2022-07-03T03:14:13;5.03;;;4.40;;
6019;SDS011;3038;51.122;6.840;2022-07-03T03:16:48;5.00;;;4.60;;
6019;SDS011;3038;51.122;6.840;2022-07-03T03:19:16;6.77;;;4.80;;
6019;SDS011;3038;51.122;6.840;2022-07-03T03:21:58;5.90;;;5.40;;
6019;SDS011;3038;51.122;6.840;2022-07-03T03:24:34;4.70;;;4.00;;
6019;SDS011;3038;51.122;6.840;2022-07-03T03:27:00;5.20;;;4.20;;
6019;SDS011;3038;51.122;6.840;2022-07-03T03:29:28;5.30;;;4.20;;
6019;SDS011;3038;51.122;6.840;2022-07-03T03:31:54;4.53;;;4.07;;
6019;SDS011;3038;51.122;6.840;2022-07-03T03:34:20;4.20;;;3.80;;
6019;SDS011;3038;51.122;6.840;2022-07-03T03:36:46;6.27;;;4.40;;
6019;SDS011;3038;51.122;6.840;2022-07-03T03:39:12;5.17;;;4.67;;
6019;SDS011;3038;51.122;6.840;2022-07-03T03:41:37;4.53;;;4.23;;
6019;SDS011;3038;51.122;6.840;2022-07-03T03:44:03;5.97;;;3.97;;
6019;SDS011;3038;51.122;6.840;2022-07-03T03:46:28;4.43;;;3.97;;
6019;SDS011;3038;51.122;6.840;2022-07-03T03:48:54;6.10;;;5.17;;
6019;SDS011;3038;51.122;6.840;2022-07-03T03:51:19;4.70;;;4.30;;
6019;SDS011;3038;51.122;6.840;2022-07-03T03:53:45;8.33;;;4.27;;
6019;SDS011;3038;51.122;6.840;2022-07-03T03:56:11;4.50;;;3.70;;
6019;SDS011;3038;51.122;6.840;2022-07-03T03:58:39;6.27;;;4.73;;
6019;SDS011;3038;51.122;6.840;2022-07-03T04:01:07;4.93;;;4.53;;
6019;SDS011;3038;51.122;6.840;2022-07-03T04:03:33;10.70;;;4.30;;
6019;SDS011;3038;51.122;6.840;2022-07-03T04:05:59;5.23;;;4.00;;
6019;SDS011;3038;51.122;6.840;2022-07-03T04:08:26;5.60;;;3.90;;
6019;SDS011;3038;51.122;6.840;2022-07-03T04:10:52;5.10;;;4.60;;
6019;SDS011;3038;51.122;6.840;2022-07-03T04:13:18;6.30;;;4.50;;
6019;SDS011;3038;51.122;6.840;2022-07-03T04:15:47;4.90;;;4.10;;
6019;SDS011;3038;51.122;6.840;2022-07-03T04:18:14;5.63;;;4.50;;
6019;SDS011;3038;51.122;6.840;2022-07-03T04:20:39;4.83;;;4.43;;
6019;SDS011;3038;51.122;6.840;2022-07-03T04:23:05;5.00;;;4.33;;
6019;SDS011;3038;51.122;6.840;2022-07-03T04:25:30;5.17;;;4.67;;
6019;SDS011;3038;51.122;6.840;2022-07-03T04:27:56;5.80;;;4.30;;
6019;SDS011;3038;51.122;6.840;2022-07-03T04:30:22;5.10;;;4.63;;
6019;SDS011;3038;51.122;6.840;2022-07-03T04:32:47;5.47;;;4.00;;
6019;SDS011;3038;51.122;6.840;2022-07-03T04:35:14;4.70;;;4.00;;
6019;SDS011;3038;51.122;6.840;2022-07-03T04:37:41;5.87;;;4.30;;
6019;SDS011;3038;51.122;6.840;2022-07-03T04:40:07;5.67;;;4.53;;
6019;SDS011;3038;51.122;6.840;2022-07-03T04:42:33;5.50;;;5.00;;
6019;SDS011;3038;51.122;6.840;2022-07-03T04:44:58;4.90;;;4.40;;
6019;SDS011;3038;51.122;6.840;2022-07-03T04:47:23;5.67;;;4.30;;
6019;SDS011;3038;51.122;6.840;2022-07-03T04:49:49;4.70;;;4.30;;
6019;SDS011;3038;51.122;6.840;2022-07-03T04:52:14;10.53;;;5.47;;
6019;SDS011;3038;51.122;6.840;2022-07-03T04:54:40;6.50;;;5.30;;
6019;SDS011;3038;51.122;6.840;2022-07-03T04:57:05;5.47;;;5.00;;
6019;SDS011;3038;51.122;6.840;2022-07-03T04:59:30;5.30;;;4.40;;
6019;SDS011;3038;51.122;6.840;2022-07-03T05:01:56;7.00;;;4.60;;
6019;SDS011;3038;51.122;6.840;2022-07-03T05:04:21;5.70;;;4.57;;
6019;SDS011;3038;51.122;6.840;2022-07-03T05:06:47;5.77;;;5.10;;
6019;SDS011;3038;51.122;6.840;2022-07-03T05:09:13;4.80;;;3.90;;
6019;SDS011;3038;51.122;6.840;2022-07-03T05:11:38;4.70;;;3.80;;
6019;SDS011;3038;51.122;6.840;2022-07-03T05:14:04;8.23;;;4.00;;
6019;SDS011;3038;51.122;6.840;2022-07-03T05:16:30;5.57;;;3.90;;
6019;SDS011;3038;51.122;6.840;2022-07-03T05:18:56;7.30;;;4.20;;
6019;SDS011;3038;51.122;6.840;2022-07-03T05:21:22;5.50;;;3.97;;
6019;SDS011;3038;51.122;6.840;2022-07-03T05:23:47;7.00;;;4.40;;
6019;SDS011;3038;51.122;6.840;2022-07-03T05:26:12;4.03;;;3.70;;
6019;SDS011;3038;51.122;6.840;2022-07-03T05:28:38;6.50;;;4.43;;
6019;SDS011;3038;51.122;6.840;2022-07-03T05:31:03;4.83;;;4.30;;
6019;SDS011;3038;51.122;6.840;2022-07-03T05:33:29;6.30;;;4.20;;
6019;SDS011;3038;51.122;6.840;2022-07-03T05:35:55;5.00;;;4.50;;
6019;SDS011;3038;51.122;6.840;2022-07-03T05:38:21;6.23;;;4.00;;
6019;SDS011;3038;51.122;6.840;2022-07-03T05:41:05;6.37;;;4.40;;
6019;SDS011;3038;51.122;6.840;2022-07-03T05:43:31;6.40;;;4.30;;
6019;SDS011;3038;51.122;6.840;2022-07-03T05:45:56;5.30;;;4.07;;
6019;SDS011;3038;51.122;6.840;2022-07-03T05:48:22;5.57;;;3.70;;
6019;SDS011;3038;51.122;6.840;2022-07-03T05:50:48;7.83;;;4.50;;
6019;SDS011;3038;51.122;6.840;2022-07-03T05:53:13;5.83;;;3.50;;
6019;SDS011;3038;51.122;6.840;2022-07-03T05:55:39;5.93;;;4.57;;
6019;SDS011;3038;51.122;6.840;2022-07-03T05:58:04;12.60;;;4.23;;
6019;SDS011;3038;51.122;6.840;2022-07-03T06:00:29;7.57;;;5.23;;
6019;SDS011;3038;51.122;6.840;2022-07-03T06:02:55;5.57;;;4.10;;
6019;SDS011;3038;51.122;6.840;2022-07-03T06:05:20;8.30;;;4.87;;
6019;SDS011;3038;51.122;6.840;2022-07-03T06:07:45;7.77;;;4.90;;
6019;SDS011;3038;51.122;6.840;2022-07-03T06:10:11;6.70;;;5.30;;
6019;SDS011;3038;51.122;6.840;2022-07-03T06:12:36;5.10;;;4.60;;
6019;SDS011;3038;51.122;6.840;2022-07-03T06:15:01;7.30;;;4.13;;
6019;SDS011;3038;51.122;6.840;2022-07-03T06:17:27;5.13;;;4.73;;
6019;SDS011;3038;51.122;6.840;2022-07-03T06:19:53;5.37;;;4.97;;
6019;SDS011;3038;51.122;6.840;2022-07-03T06:22:18;10.03;;;5.60;;
6019;SDS011;3038;51.122;6.840;2022-07-03T06:24:43;6.80;;;4.97;;
6019;SDS011;3038;51.122;6.840;2022-07-03T06:27:09;5.80;;;4.57;;
6019;SDS011;3038;51.122;6.840;2022-07-03T06:29:34;5.13;;;4.70;;
6019;SDS011;3038;51.122;6.840;2022-07-03T06:31:59;5.77;;;5.20;;
6019;SDS011;3038;51.122;6.840;2022-07-03T06:34:25;6.33;;;4.67;;
6019;SDS011;3038;51.122;6.840;2022-07-03T06:36:50;8.53;;;5.67;;
6019;SDS011;3038;51.122;6.840;2022-07-03T06:39:16;5.67;;;5.07;;
6019;SDS011;3038;51.122;6.840;2022-07-03T06:41:41;5.80;;;5.23;;
6019;SDS011;3038;51.122;6.840;2022-07-03T06:44:06;7.90;;;5.43;;
6019;SDS011;3038;51.122;6.840;2022-07-03T06:46:32;5.90;;;4.80;;
6019;SDS011;3038;51.122;6.840;2022-07-03T06:48:57;5.43;;;5.03;;
6019;SDS011;3038;51.122;6.840;2022-07-03T06:51:22;6.40;;;5.80;;
6019;SDS011;3038;51.122;6.840;2022-07-03T06:53:48;6.13;;;5.60;;
6019;SDS011;3038;51.122;6.840;2022-07-03T06:56:13;6.57;;;5.97;;
6019;SDS011;3038;51.122;6.840;2022-07-03T06:58:38;6.47;;;5.73;;
6019;SDS011;3038;51.122;6.840;2022-07-03T07:01:04;7.33;;;6.17;;
6019;SDS011;3038;51.122;6.840;2022-07-03T07:03:29;6.77;;;4.87;;
6019;SDS011;3038;51.122;6.840;2022-07-03T07:05:55;7.10;;;5.30;;
6019;SDS011;3038;51.122;6.840;2022-07-03T07:08:20;8.10;;;6.10;;
6019;SDS011;3038;51.122;6.840;2022-07-03T07:10:45;6.10;;;5.60;;
6019;SDS011;3038;51.122;6.840;2022-07-03T07:13:11;6.07;;;5.57;;
6019;SDS011;3038;51.122;6.840;2022-07-03T07:15:36;6.07;;;5.47;;
6019;SDS011;3038;51.122;6.840;2022-07-03T07:18:01;6.27;;;5.67;;
6019;SDS011;3038;51.122;6.840;2022-07-03T07:20:27;7.60;;;5.27;;
6019;SDS011;3038;51.122;6.840;2022-07-03T07:22:52;5.40;;;5.00;;
6019;SDS011;3038;51.122;6.840;2022-07-03T07:25:18;5.60;;;5.10;;
6019;SDS011;3038;51.122;6.840;2022-07-03T07:27:43;6.97;;;6.33;;
6019;SDS011;3038;51.122;6.840;2022-07-03T07:30:08;6.60;;;5.90;;
6019;SDS011;3038;51.122;6.840;2022-07-03T07:32:34;5.90;;;5.30;;
6019;SDS011;3038;51.122;6.840;2022-07-03T07:34:59;6.57;;;6.07;;
6019;SDS011;3038;51.122;6.840;2022-07-03T07:37:25;8.03;;;7.33;;
6019;SDS011;3038;51.122;6.840;2022-07-03T07:39:50;7.73;;;5.67;;
6019;SDS011;3038;51.122;6.840;2022-07-03T07:42:15;5.60;;;5.20;;
6019;SDS011;3038;51.122;6.840;2022-07-03T07:44:42;5.60;;;5.10;;
6019;SDS011;3038;51.122;6.840;2022-07-03T07:47:07;7.63;;;6.37;;
6019;SDS011;3038;51.122;6.840;2022-07-03T07:49:33;5.90;;;5.40;;
6019;SDS011;3038;51.122;6.840;2022-07-03T07:51:58;6.97;;;5.90;;
6019;SDS011;3038;51.122;6.840;2022-07-03T07:54:23;6.30;;;5.17;;
6019;SDS011;3038;51.122;6.840;2022-07-03T07:56:49;7.73;;;4.73;;
6019;SDS011;3038;51.122;6.840;2022-07-03T07:59:14;5.87;;;5.47;;
6019;SDS011;3038;51.122;6.840;2022-07-03T08:01:40;6.33;;;5.73;;
6019;SDS011;3038;51.122;6.840;2022-07-03T08:04:41;6.10;;;5.60;;
6019;SDS011;3038;51.122;6.840;2022-07-03T08:07:24;6.13;;;5.63;;
6019;SDS011;3038;51.122;6.840;2022-07-03T08:09:50;5.03;;;4.50;;
6019;SDS011;3038;51.122;6.840;2022-07-03T08:12:18;5.80;;;5.20;;
6019;SDS011;3038;51.122;6.840;2022-07-03T08:14:43;5.07;;;4.67;;
6019;SDS011;3038;51.122;6.840;2022-07-03T08:17:09;5.60;;;5.10;;
6019;SDS011;3038;51.122;6.840;2022-07-03T08:19:34;5.50;;;4.63;;
6019;SDS011;3038;51.122;6.840;2022-07-03T08:22:00;5.07;;;4.53;;
6019;SDS011;3038;51.122;6.840;2022-07-03T08:24:26;4.57;;;4.17;;
6019;SDS011;3038;51.122;6.840;2022-07-03T08:26:52;6.33;;;4.80;;
6019;SDS011;3038;51.122;6.840;2022-07-03T08:29:17;4.83;;;4.33;;
6019;SDS011;3038;51.122;6.840;2022-07-03T08:31:42;4.27;;;3.93;;
6019;SDS011;3038;51.122;6.840;2022-07-03T08:34:08;4.60;;;4.30;;
6019;SDS011;3038;51.122;6.840;2022-07-03T08:36:37;5.87;;;4.23;;
6019;SDS011;3038;51.122;6.840;2022-07-03T08:39:02;6.27;;;4.90;;
6019;SDS011;3038;51.122;6.840;2022-07-03T08:41:28;8.83;;;4.53;;
6019;SDS011;3038;51.122;6.840;2022-07-03T08:43:56;4.10;;;3.80;;
6019;SDS011;3038;51.122;6.840;2022-07-03T08:46:25;4.70;;;4.30;;
6019;SDS011;3038;51.122;6.840;2022-07-03T08:48:51;4.67;;;4.30;;
6019;SDS011;3038;51.122;6.840;2022-07-03T08:51:19;4.53;;;4.20;;
6019;SDS011;3038;51.122;6.840;2022-07-03T08:53:47;4.10;;;3.80;;
6019;SDS011;3038;51.122;6.840;2022-07-03T08:56:13;4.00;;;3.60;;
6019;SDS011;3038;51.122;6.840;2022-07-03T08:58:39;4.00;;;3.70;;
6019;SDS011;3038;51.122;6.840;2022-07-03T09:01:04;3.60;;;3.33;;
6019;SDS011;3038;51.122;6.840;2022-07-03T09:03:31;8.17;;;4.57;;
6019;SDS011;3038;51.122;6.840;2022-07-03T09:05:56;3.80;;;3.40;;
6019;SDS011;3038;51.122;6.840;2022-07-03T09:08:23;5.10;;;3.80;;
6019;SDS011;3038;51.122;6.840;2022-07-03T09:10:51;5.23;;;4.33;;
6019;SDS011;3038;51.122;6.840;2022-07-03T09:13:17;4.37;;;3.97;;
6019;SDS011;3038;51.122;6.840;2022-07-03T09:15:42;4.30;;;4.00;;
6019;SDS011;3038;51.122;6.840;2022-07-03T09:18:09;5.13;;;4.67;;
6019;SDS011;3038;51.122;6.840;2022-07-03T09:20:36;4.80;;;4.30;;
6019;SDS011;3038;51.122;6.840;2022-07-03T09:23:09;4.53;;;4.07;;
6019;SDS011;3038;51.122;6.840;2022-07-03T09:25:58;4.10;;;3.80;;
6019;SDS011;3038;51.122;6.840;2022-07-03T09:31:17;5.87;;;3.67;;
6019;SDS011;3038;51.122;6.840;2022-07-03T09:34:00;4.13;;;3.83;;
6019;SDS011;3038;51.122;6.840;2022-07-03T09:36:46;4.73;;;3.60;;
6019;SDS011;3038;51.122;6.840;2022-07-03T09:39:17;3.67;;;3.37;;
6019;SDS011;3038;51.122;6.840;2022-07-03T09:41:51;3.57;;;3.27;;
6019;SDS011;3038;51.122;6.840;2022-07-03T09:44:27;5.40;;;3.57;;
6019;SDS011;3038;51.122;6.840;2022-07-03T09:47:38;5.23;;;4.40;;
6019;SDS011;3038;51.122;6.840;2022-07-03T09:55:00;3.90;;;3.60;;
6019;SDS011;3038;51.122;6.840;2022-07-03T09:57:45;3.87;;;3.53;;
6019;SDS011;3038;51.122;6.840;2022-07-03T10:00:12;4.37;;;4.07;;
6019;SDS011;3038;51.122;6.840;2022-07-03T10:02:56;4.87;;;3.80;;
6019;SDS011;3038;51.122;6.840;2022-07-03T10:08:02;6.30;;;4.50;;
6019;SDS011;3038;51.122;6.840;2022-07-03T10:10:40;4.53;;;3.50;;
6019;SDS011;3038;51.122;6.840;2022-07-03T10:13:07;4.57;;;4.17;;
6019;SDS011;3038;51.122;6.840;2022-07-03T10:15:33;5.57;;;4.37;;
6019;SDS011;3038;51.122;6.840;2022-07-03T10:18:04;4.80;;;4.27;;
6019;SDS011;3038;51.122;6.840;2022-07-03T10:20:34;5.27;;;4.77;;
6019;SDS011;3038;51.122;6.840;2022-07-03T10:23:04;7.67;;;5.50;;
6019;SDS011;3038;51.122;6.840;2022-07-03T10:25:30;5.97;;;5.00;;
6019;SDS011;3038;51.122;6.840;2022-07-03T10:27:56;5.40;;;4.80;;
6019;SDS011;3038;51.122;6.840;2022-07-03T10:30:22;7.17;;;5.00;;
6019;SDS011;3038;51.122;6.840;2022-07-03T10:32:52;5.50;;;4.30;;
6019;SDS011;3038;51.122;6.840;2022-07-03T10:35:28;6.43;;;5.83;;
6019;SDS011;3038;51.122;6.840;2022-07-03T10:43:42;5.63;;;5.10;;
6019;SDS011;3038;51.122;6.840;2022-07-03T10:46:28;8.23;;;4.73;;
6019;SDS011;3038;51.122;6.840;2022-07-03T10:51:29;5.77;;;4.20;;
6019;SDS011;3038;51.122;6.840;2022-07-03T11:07:27;3.80;;;3.50;;
6019;SDS011;3038;51.122;6.840;2022-07-03T11:23:44;4.93;;;4.50;;
6019;SDS011;3038;51.122;6.840;2022-07-03T11:26:33;5.07;;;3.90;;
6019;SDS011;3038;51.122;6.840;2022-07-03T11:28:59;5.30;;;3.57;;
6019;SDS011;3038;51.122;6.840;2022-07-03T11:31:24;3.77;;;3.30;;
6019;SDS011;3038;51.122;6.840;2022-07-03T11:38:42;4.00;;;2.70;;
6019;SDS011;3038;51.122;6.840;2022-07-03T11:41:17;4.47;;;3.23;;
6019;SDS011;3038;51.122;6.840;2022-07-03T11:43:50;3.30;;;2.90;;
6019;SDS011;3038;51.122;6.840;2022-07-03T11:46:21;3.37;;;3.17;;
6019;SDS011;3038;51.122;6.840;2022-07-03T11:48:48;4.10;;;3.20;;
6019;SDS011;3038;51.122;6.840;2022-07-03T11:51:15;6.47;;;3.30;;
6019;SDS011;3038;51.122;6.840;2022-07-03T11:53:41;3.33;;;3.00;;
6019;SDS011;3038;51.122;6.840;2022-07-03T11:56:11;2.80;;;2.60;;
6019;SDS011;3038;51.122;6.840;2022-07-03T11:58:50;3.07;;;2.17;;
6019;SDS011;3038;51.122;6.840;2022-07-03T12:04:05;2.60;;;2.40;;
6019;SDS011;3038;51.122;6.840;2022-07-03T12:09:03;2.90;;;2.70;;
6019;SDS011;3038;51.122;6.840;2022-07-03T12:11:36;4.37;;;2.60;;
6019;SDS011;3038;51.122;6.840;2022-07-03T12:14:02;5.83;;;3.00;;
6019;SDS011;3038;51.122;6.840;2022-07-03T12:16:34;2.20;;;2.07;;
6019;SDS011;3038;51.122;6.840;2022-07-03T12:19:06;4.67;;;2.73;;
6019;SDS011;3038;51.122;6.840;2022-07-03T12:21:35;2.50;;;2.30;;
6019;SDS011;3038;51.122;6.840;2022-07-03T12:24:08;5.10;;;2.50;;
6019;SDS011;3038;51.122;6.840;2022-07-03T12:26:35;2.60;;;2.40;;
6019;SDS011;3038;51.122;6.840;2022-07-03T12:29:05;3.23;;;1.70;;
6019;SDS011;3038;51.122;6.840;2022-07-03T12:31:32;5.70;;;2.50;;
6019;SDS011;3038;51.122;6.840;2022-07-03T12:33:59;2.10;;;1.90;;
6019;SDS011;3038;51.122;6.840;2022-07-03T12:36:26;4.10;;;2.10;;
6019;SDS011;3038;51.122;6.840;2022-07-03T12:38:52;2.83;;;2.17;;
6019;SDS011;3038;51.122;6.840;2022-07-03T12:41:19;2.97;;;2.33;;
6019;SDS011;3038;51.122;6.840;2022-07-03T12:43:46;2.93;;;2.27;;
6019;SDS011;3038;51.122;6.840;2022-07-03T12:48:57;2.13;;;1.97;;
6019;SDS011;3038;51.122;6.840;2022-07-03T12:54:15;4.43;;;1.90;;
6019;SDS011;3038;51.122;6.840;2022-07-03T12:57:01;2.60;;;2.07;;
6019;SDS011;3038;51.122;6.840;2022-07-03T13:00:02;4.40;;;1.90;;
6019;SDS011;3038;51.122;6.840;2022-07-03T13:02:28;2.30;;;2.10;;
6019;SDS011;3038;51.122;6.840;2022-07-03T13:04:53;2.10;;;1.90;;
6019;SDS011;3038;51.122;6.840;2022-07-03T13:07:19;2.17;;;1.97;;
6019;SDS011;3038;51.122;6.840;2022-07-03T13:09:51;2.67;;;2.07;;
6019;SDS011;3038;51.122;6.840;2022-07-03T13:12:21;2.10;;;1.90;;
6019;SDS011;3038;51.122;6.840;2022-07-03T13:14:54;2.10;;;1.90;;
6019;SDS011;3038;51.122;6.840;2022-07-03T13:17:20;2.50;;;1.93;;
6019;SDS011;3038;51.122;6.840;2022-07-03T13:19:46;2.23;;;1.87;;
6019;SDS011;3038;51.122;6.840;2022-07-03T13:22:11;3.10;;;2.20;;
6019;SDS011;3038;51.122;6.840;2022-07-03T13:24:37;2.50;;;2.30;;
6019;SDS011;3038;51.122;6.840;2022-07-03T13:27:02;4.60;;;1.90;;
6019;SDS011;3038;51.122;6.840;2022-07-03T13:29:28;4.47;;;1.90;;
6019;SDS011;3038;51.122;6.840;2022-07-03T13:31:53;2.23;;;2.00;;
6019;SDS011;3038;51.122;6.840;2022-07-03T13:34:19;2.30;;;2.00;;
6019;SDS011;3038;51.122;6.840;2022-07-03T13:36:44;4.10;;;2.17;;
6019;SDS011;3038;51.122;6.840;2022-07-03T13:39:09;2.80;;;1.70;;
6019;SDS011;3038;51.122;6.840;2022-07-03T13:41:35;1.90;;;1.80;;
6019;SDS011;3038;51.122;6.840;2022-07-03T13:44:01;3.07;;;1.90;;
6019;SDS011;3038;51.122;6.840;2022-07-03T13:46:26;2.20;;;2.00;;
6019;SDS011;3038;51.122;6.840;2022-07-03T13:48:52;4.40;;;2.23;;
6019;SDS011;3038;51.122;6.840;2022-07-03T13:51:18;2.23;;;1.90;;
6019;SDS011;3038;51.122;6.840;2022-07-03T13:53:44;2.53;;;2.07;;
6019;SDS011;3038;51.122;6.840;2022-07-03T13:56:10;3.03;;;1.63;;
6019;SDS011;3038;51.122;6.840;2022-07-03T13:58:36;5.77;;;1.90;;
6019;SDS011;3038;51.122;6.840;2022-07-03T14:01:01;2.20;;;2.00;;
6019;SDS011;3038;51.122;6.840;2022-07-03T14:03:27;2.20;;;2.00;;
6019;SDS011;3038;51.122;6.840;2022-07-03T14:05:53;2.67;;;1.87;;
6019;SDS011;3038;51.122;6.840;2022-07-03T14:08:18;2.40;;;1.60;;
6019;SDS011;3038;51.122;6.840;2022-07-03T14:10:44;3.23;;;1.97;;
6019;SDS011;3038;51.122;6.840;2022-07-03T14:13:10;2.10;;;1.77;;
6019;SDS011;3038;51.122;6.840;2022-07-03T14:15:36;2.80;;;1.83;;
6019;SDS011;3038;51.122;6.840;2022-07-03T14:18:01;2.73;;;1.90;;
6019;SDS011;3038;51.122;6.840;2022-07-03T14:20:27;1.77;;;1.67;;
6019;SDS011;3038;51.122;6.840;2022-07-03T14:22:53;2.63;;;1.77;;
6019;SDS011;3038;51.122;6.840;2022-07-03T14:25:19;3.20;;;1.70;;
6019;SDS011;3038;51.122;6.840;2022-07-03T14:27:44;2.73;;;1.77;;
6019;SDS011;3038;51.122;6.840;2022-07-03T14:30:28;1.80;;;1.70;;
6019;SDS011;3038;51.122;6.840;2022-07-03T14:33:12;2.33;;;1.20;;
6019;SDS011;3038;51.122;6.840;2022-07-03T14:35:37;5.40;;;1.83;;
6019;SDS011;3038;51.122;6.840;2022-07-03T14:38:02;2.10;;;1.57;;
6019;SDS011;3038;51.122;6.840;2022-07-03T14:40:28;2.00;;;1.80;;
6019;SDS011;3038;51.122;6.840;2022-07-03T14:42:54;1.50;;;1.40;;
6019;SDS011;3038;51.122;6.840;2022-07-03T14:45:21;4.13;;;3.83;;
6019;SDS011;3038;51.122;6.840;2022-07-03T14:47:47;4.17;;;3.67;;
6019;SDS011;3038;51.122;6.840;2022-07-03T14:50:12;2.37;;;2.03;;
6019;SDS011;3038;51.122;6.840;2022-07-03T14:52:38;4.20;;;1.70;;
6019;SDS011;3038;51.122;6.840;2022-07-03T14:55:03;1.80;;;1.70;;
6019;SDS011;3038;51.122;6.840;2022-07-03T14:57:30;1.90;;;1.70;;
6019;SDS011;3038;51.122;6.840;2022-07-03T15:02:35;2.77;;;1.57;;
6019;SDS011;3038;51.122;6.840;2022-07-03T15:05:21;3.73;;;1.80;;
6019;SDS011;3038;51.122;6.840;2022-07-03T15:08:14;2.07;;;1.80;;
6019;SDS011;3038;51.122;6.840;2022-07-03T15:10:40;2.70;;;1.80;;
6019;SDS011;3038;51.122;6.840;2022-07-03T15:13:06;3.00;;;1.80;;
6019;SDS011;3038;51.122;6.840;2022-07-03T15:15:31;1.60;;;1.50;;
6019;SDS011;3038;51.122;6.840;2022-07-03T15:17:58;2.00;;;1.80;;
6019;SDS011;3038;51.122;6.840;2022-07-03T15:20:30;1.80;;;1.50;;
6019;SDS011;3038;51.122;6.840;2022-07-03T15:22:57;1.97;;;1.77;;
6019;SDS011;3038;51.122;6.840;2022-07-03T15:25:26;4.10;;;1.73;;
6019;SDS011;3038;51.122;6.840;2022-07-03T15:27:53;1.90;;;1.70;;
6019;SDS011;3038;51.122;6.840;2022-07-03T15:30:20;2.40;;;1.63;;
6019;SDS011;3038;51.122;6.840;2022-07-03T15:32:47;1.77;;;1.53;;
6019;SDS011;3038;51.122;6.840;2022-07-03T15:35:13;2.90;;;1.83;;
6019;SDS011;3038;51.122;6.840;2022-07-03T15:37:49;3.20;;;1.70;;
6019;SDS011;3038;51.122;6.840;2022-07-03T15:43:28;1.90;;;1.60;;
6019;SDS011;3038;51.122;6.840;2022-07-03T15:46:32;2.90;;;1.73;;
6019;SDS011;3038;51.122;6.840;2022-07-03T16:00:16;2.07;;;1.83;;
6019;SDS011;3038;51.122;6.840;2022-07-03T16:05:26;2.40;;;1.80;;
6019;SDS011;3038;51.122;6.840;2022-07-03T16:07:55;2.67;;;1.73;;
6019;SDS011;3038;51.122;6.840;2022-07-03T16:10:25;2.77;;;2.00;;
6019;SDS011;3038;51.122;6.840;2022-07-03T16:12:51;2.07;;;1.83;;
6019;SDS011;3038;51.122;6.840;2022-07-03T16:15:20;4.30;;;1.83;;
6019;SDS011;3038;51.122;6.840;2022-07-03T16:17:46;3.30;;;1.90;;
6019;SDS011;3038;51.122;6.840;2022-07-03T16:20:14;2.27;;;1.60;;
6019;SDS011;3038;51.122;6.840;2022-07-03T16:22:40;3.93;;;1.80;;
6019;SDS011;3038;51.122;6.840;2022-07-03T16:25:06;3.63;;;1.90;;
6019;SDS011;3038;51.122;6.840;2022-07-03T16:27:33;1.70;;;1.50;;
6019;SDS011;3038;51.122;6.840;2022-07-03T16:29:59;1.70;;;1.60;;
6019;SDS011;3038;51.122;6.840;2022-07-03T16:32:33;1.90;;;1.57;;
6019;SDS011;3038;51.122;6.840;2022-07-03T16:35:14;2.07;;;1.60;;
6019;SDS011;3038;51.122;6.840;2022-07-03T16:37:59;1.70;;;1.60;;
6019;SDS011;3038;51.122;6.840;2022-07-03T16:40:26;2.50;;;1.70;;
6019;SDS011;3038;51.122;6.840;2022-07-03T16:42:53;2.47;;;1.70;;
6019;SDS011;3038;51.122;6.840;2022-07-03T16:45:22;3.83;;;1.87;;
6019;SDS011;3038;51.122;6.840;2022-07-03T16:47:54;2.27;;;1.60;;
6019;SDS011;3038;51.122;6.840;2022-07-03T16:50:24;3.00;;;1.67;;
6019;SDS011;3038;51.122;6.840;2022-07-03T16:52:53;3.93;;;1.60;;
6019;SDS011;3038;51.122;6.840;2022-07-03T16:55:19;6.03;;;1.80;;
6019;SDS011;3038;51.122;6.840;2022-07-03T16:57:49;2.53;;;1.40;;
6019;SDS011;3038;51.122;6.840;2022-07-03T17:00:27;2.33;;;1.80;;
6019;SDS011;3038;51.122;6.840;2022-07-03T17:02:54;1.50;;;1.30;;
6019;SDS011;3038;51.122;6.840;2022-07-03T17:05:21;3.43;;;1.90;;
6019;SDS011;3038;51.122;6.840;2022-07-03T17:07:50;2.23;;;1.53;;
6019;SDS011;3038;51.122;6.840;2022-07-03T17:10:18;2.30;;;1.20;;
6019;SDS011;3038;51.122;6.840;2022-07-03T17:12:46;1.60;;;1.40;;
6019;SDS011;3038;51.122;6.840;2022-07-03T17:15:14;3.03;;;1.80;;
6019;SDS011;3038;51.122;6.840;2022-07-03T17:17:41;2.10;;;1.40;;
6019;SDS011;3038;51.122;6.840;2022-07-03T17:20:17;3.20;;;1.37;;